sensor_id;sensor_type;location;lat;lon;timestamp;temperature;humidity
47022;DHT22;32779;52.264;6.154;2022-10-23T00:01:57;11.60;99.90
47022;DHT22;32779;52.264;6.154;2022-10-23T00:04:23;11.60;99.90
47022;DHT22;32779;52.264;6.154;2022-10-23T00:06:52;11.70;99.90
47022;DHT22;32779;52.264;6.154;2022-10-23T00:09:20;11.70;99.90
47022;DHT22;32779;52.264;6.154;2022-10-23T00:11:47;11.70;99.90
47022;DHT22;32779;52.264;6.154;2022-10-23T00:14:17;11.70;99.90
47022;DHT22;32779;52.264;6.154;2022-10-23T00:16:43;11.70;99.90
47022;DHT22;32779;52.264;6.154;2022-10-23T00:19:09;11.70;99.90
47022;DHT22;32779;52.264;6.154;2022-10-23T00:21:35;11.70;99.90
47022;DHT22;32779;52.264;6.154;2022-10-23T00:24:00;11.70;99.90
47022;DHT22;32779;52.264;6.154;2022-10-23T00:26:26;11.70;99.90
47022;DHT22;32779;52.264;6.154;2022-10-23T00:28:52;11.70;99.90
47022;DHT22;32779;52.264;6.154;2022-10-23T00:31:19;11.70;99.90
47022;DHT22;32779;52.264;6.154;2022-10-23T00:33:46;11.70;99.90
47022;DHT22;32779;52.264;6.154;2022-10-23T00:36:13;11.70;99.90
47022;DHT22;32779;52.264;6.154;2022-10-23T00:38:39;11.70;99.90
47022;DHT22;32779;52.264;6.154;2022-10-23T00:41:06;11.70;99.90
47022;DHT22;32779;52.264;6.154;2022-10-23T00:43:33;11.70;99.90
47022;DHT22;32779;52.264;6.154;2022-10-23T00:45:59;11.80;99.90
47022;DHT22;32779;52.264;6.154;2022-10-23T00:48:26;11.80;99.90
47022;DHT22;32779;52.264;6.154;2022-10-23T00:50:52;11.70;99.90
47022;DHT22;32779;52.264;6.154;2022-10-23T00:53:18;11.70;99.90
47022;DHT22;32779;52.264;6.154;2022-10-23T00:55:46;11.70;99.90
47022;DHT22;32779;52.264;6.154;2022-10-23T00:58:15;11.70;99.90
47022;DHT22;32779;52.264;6.154;2022-10-23T01:00:53;11.70;99.90
47022;DHT22;32779;52.264;6.154;2022-10-23T01:03:20;11.70;99.90
47022;DHT22;32779;52.264;6.154;2022-10-23T01:06:02;11.70;99.90
47022;DHT22;32779;52.264;6.154;2022-10-23T01:11:14;11.70;99.90
47022;DHT22;32779;52.264;6.154;2022-10-23T01:13:49;11.60;99.90
47022;DHT22;32779;52.264;6.154;2022-10-23T01:16:28;11.60;99.90
47022;DHT22;32779;52.264;6.154;2022-10-23T01:19:02;11.60;99.90
47022;DHT22;32779;52.264;6.154;2022-10-23T01:21:48;11.60;99.90
47022;DHT22;32779;52.264;6.154;2022-10-23T01:37:45;11.50;99.90
47022;DHT22;32779;52.264;6.154;2022-10-23T01:40:31;11.40;99.90
47022;DHT22;32779;52.264;6.154;2022-10-23T01:43:03;11.50;99.90
47022;DHT22;32779;52.264;6.154;2022-10-23T01:45:43;11.50;99.90
47022;DHT22;32779;52.264;6.154;2022-10-23T01:48:12;11.50;99.90
47022;DHT22;32779;52.264;6.154;2022-10-23T01:50:40;11.50;99.90
47022;DHT22;32779;52.264;6.154;2022-10-23T01:53:07;11.40;99.90
47022;DHT22;32779;52.264;6.154;2022-10-23T01:55:33;11.40;99.90
47022;DHT22;32779;52.264;6.154;2022-10-23T01:58:01;11.40;99.90
47022;DHT22;32779;52.264;6.154;2022-10-23T02:00:28;11.40;99.90
47022;DHT22;32779;52.264;6.154;2022-10-23T02:02:55;11.40;99.90
47022;DHT22;32779;52.264;6.154;2022-10-23T02:05:26;11.40;99.90
47022;DHT22;32779;52.264;6.154;2022-10-23T02:07:53;11.40;99.90
47022;DHT22;32779;52.264;6.154;2022-10-23T02:10:20;11.40;99.90
47022;DHT22;32779;52.264;6.154;2022-10-23T02:12:52;11.40;99.90
47022;DHT22;32779;52.264;6.154;2022-10-23T02:15:31;11.40;99.90
47022;DHT22;32779;52.264;6.154;2022-10-23T02:18:14;11.40;99.90
47022;DHT22;32779;52.264;6.154;2022-10-23T02:20:46;11.40;99.90
47022;DHT22;32779;52.264;6.154;2022-10-23T02:26:26;11.40;99.90
47022;DHT22;32779;52.264;6.154;2022-10-23T02:29:05;11.30;99.90
47022;DHT22;32779;52.264;6.154;2022-10-23T02:31:32;11.30;99.90
47022;DHT22;32779;52.264;6.154;2022-10-23T02:33:57;11.20;99.90
47022;DHT22;32779;52.264;6.154;2022-10-23T02:36:23;11.20;99.90
47022;DHT22;32779;52.264;6.154;2022-10-23T02:38:48;11.10;99.90
47022;DHT22;32779;52.264;6.154;2022-10-23T02:47:07;11.00;99.90
47022;DHT22;32779;52.264;6.154;2022-10-23T02:52:40;11.00;99.90
47022;DHT22;32779;52.264;6.154;2022-10-23T02:57:53;10.90;99.90
47022;DHT22;32779;52.264;6.154;2022-10-23T03:00:23;11.00;99.90
47022;DHT22;32779;52.264;6.154;2022-10-23T03:03:01;10.90;99.90
47022;DHT22;32779;52.264;6.154;2022-10-23T03:05:31;11.00;99.90
47022;DHT22;32779;52.264;6.154;2022-10-23T03:07:57;11.00;99.90
47022;DHT22;32779;52.264;6.154;2022-10-23T03:10:23;11.00;99.90
47022;DHT22;32779;52.264;6.154;2022-10-23T03:12:49;11.00;99.90
47022;DHT22;32779;52.264;6.154;2022-10-23T03:15:15;11.10;99.90
47022;DHT22;32779;52.264;6.154;2022-10-23T03:17:41;11.10;99.90
47022;DHT22;32779;52.264;6.154;2022-10-23T03:20:07;11.10;99.90
47022;DHT22;32779;52.264;6.154;2022-10-23T03:22:34;11.20;99.90
47022;DHT22;32779;52.264;6.154;2022-10-23T03:24:59;11.20;99.90
47022;DHT22;32779;52.264;6.154;2022-10-23T03:27:25;11.30;99.90
47022;DHT22;32779;52.264;6.154;2022-10-23T03:29:50;11.30;99.90
47022;DHT22;32779;52.264;6.154;2022-10-23T03:32:16;11.30;99.90
47022;DHT22;32779;52.264;6.154;2022-10-23T03:34:41;11.40;99.90
47022;DHT22;32779;52.264;6.154;2022-10-23T03:37:08;11.50;99.90
47022;DHT22;32779;52.264;6.154;2022-10-23T03:39:33;11.60;99.90
47022;DHT22;32779;52.264;6.154;2022-10-23T03:41:59;11.60;99.90
47022;DHT22;32779;52.264;6.154;2022-10-23T03:44:25;11.60;99.90
47022;DHT22;32779;52.264;6.154;2022-10-23T03:46:50;11.60;99.90
47022;DHT22;32779;52.264;6.154;2022-10-23T03:49:16;11.60;99.90
47022;DHT22;32779;52.264;6.154;2022-10-23T03:51:41;11.60;99.90
47022;DHT22;32779;52.264;6.154;2022-10-23T03:54:08;11.60;99.90
47022;DHT22;32779;52.264;6.154;2022-10-23T03:56:33;11.60;99.90
47022;DHT22;32779;52.264;6.154;2022-10-23T03:58:59;11.60;99.90
47022;DHT22;32779;52.264;6.154;2022-10-23T04:01:25;11.50;99.90
47022;DHT22;32779;52.264;6.154;2022-10-23T04:03:50;11.40;99.90
47022;DHT22;32779;52.264;6.154;2022-10-23T04:06:16;11.40;99.90
47022;DHT22;32779;52.264;6.154;2022-10-23T04:08:43;11.30;99.90
47022;DHT22;32779;52.264;6.154;2022-10-23T04:11:09;11.30;99.90
47022;DHT22;32779;52.264;6.154;2022-10-23T04:13:34;11.30;99.90
47022;DHT22;32779;52.264;6.154;2022-10-23T04:16:00;11.30;99.90
47022;DHT22;32779;52.264;6.154;2022-10-23T04:18:25;11.20;99.90
47022;DHT22;32779;52.264;6.154;2022-10-23T04:20:51;11.20;99.90
47022;DHT22;32779;52.264;6.154;2022-10-23T04:23:17;11.20;99.90
47022;DHT22;32779;52.264;6.154;2022-10-23T04:25:42;11.10;99.90
47022;DHT22;32779;52.264;6.154;2022-10-23T04:28:08;11.00;99.90
47022;DHT22;32779;52.264;6.154;2022-10-23T04:30:34;10.90;99.90
47022;DHT22;32779;52.264;6.154;2022-10-23T04:32:59;10.90;99.90
47022;DHT22;32779;52.264;6.154;2022-10-23T04:35:25;10.80;99.90
47022;DHT22;32779;52.264;6.154;2022-10-23T04:37:50;10.80;99.90
47022;DHT22;32779;52.264;6.154;2022-10-23T04:40:16;10.80;99.90
47022;DHT22;32779;52.264;6.154;2022-10-23T04:42:41;10.70;99.90
47022;DHT22;32779;52.264;6.154;2022-10-23T04:45:07;10.70;99.90
47022;DHT22;32779;52.264;6.154;2022-10-23T04:47:33;10.70;99.90
47022;DHT22;32779;52.264;6.154;2022-10-23T04:49:59;10.80;99.90
47022;DHT22;32779;52.264;6.154;2022-10-23T04:52:24;10.90;99.90
47022;DHT22;32779;52.264;6.154;2022-10-23T04:54:50;11.00;99.90
47022;DHT22;32779;52.264;6.154;2022-10-23T04:57:15;11.00;99.90
47022;DHT22;32779;52.264;6.154;2022-10-23T04:59:41;11.10;99.90
47022;DHT22;32779;52.264;6.154;2022-10-23T05:02:06;11.10;99.90
47022;DHT22;32779;52.264;6.154;2022-10-23T05:04:32;11.20;99.90
47022;DHT22;32779;52.264;6.154;2022-10-23T05:06:58;11.20;99.90
47022;DHT22;32779;52.264;6.154;2022-10-23T05:09:23;11.30;99.90
47022;DHT22;32779;52.264;6.154;2022-10-23T05:11:49;11.30;99.90
47022;DHT22;32779;52.264;6.154;2022-10-23T05:14:14;11.30;99.90
47022;DHT22;32779;52.264;6.154;2022-10-23T05:16:51;11.40;99.90
47022;DHT22;32779;52.264;6.154;2022-10-23T05:19:32;11.40;99.90
47022;DHT22;32779;52.264;6.154;2022-10-23T05:21:59;11.40;99.90
47022;DHT22;32779;52.264;6.154;2022-10-23T05:24:25;11.40;99.90
47022;DHT22;32779;52.264;6.154;2022-10-23T05:26:51;11.40;99.90
47022;DHT22;32779;52.264;6.154;2022-10-23T05:29:18;11.50;99.90
47022;DHT22;32779;52.264;6.154;2022-10-23T05:31:44;11.50;99.90
47022;DHT22;32779;52.264;6.154;2022-10-23T05:34:12;11.50;99.90
47022;DHT22;32779;52.264;6.154;2022-10-23T05:36:39;11.60;99.90
47022;DHT22;32779;52.264;6.154;2022-10-23T05:39:05;11.60;99.90
47022;DHT22;32779;52.264;6.154;2022-10-23T05:41:31;11.60;99.90
47022;DHT22;32779;52.264;6.154;2022-10-23T05:43:56;11.60;99.90
47022;DHT22;32779;52.264;6.154;2022-10-23T05:46:22;11.70;99.90
47022;DHT22;32779;52.264;6.154;2022-10-23T05:48:51;11.70;99.90
47022;DHT22;32779;52.264;6.154;2022-10-23T05:51:18;11.70;99.90
47022;DHT22;32779;52.264;6.154;2022-10-23T05:53:51;11.70;99.90
47022;DHT22;32779;52.264;6.154;2022-10-23T05:56:17;11.70;99.90
47022;DHT22;32779;52.264;6.154;2022-10-23T05:58:44;11.70;99.90
47022;DHT22;32779;52.264;6.154;2022-10-23T06:01:11;11.80;99.90
47022;DHT22;32779;52.264;6.154;2022-10-23T06:03:38;11.70;99.90
47022;DHT22;32779;52.264;6.154;2022-10-23T06:06:04;11.80;99.90
47022;DHT22;32779;52.264;6.154;2022-10-23T06:08:31;11.80;99.90
47022;DHT22;32779;52.264;6.154;2022-10-23T06:10:56;11.90;99.90
47022;DHT22;32779;52.264;6.154;2022-10-23T06:13:22;11.90;99.90
47022;DHT22;32779;52.264;6.154;2022-10-23T06:15:48;11.90;99.90
47022;DHT22;32779;52.264;6.154;2022-10-23T06:18:13;12.00;99.90
47022;DHT22;32779;52.264;6.154;2022-10-23T06:20:39;12.00;99.90
47022;DHT22;32779;52.264;6.154;2022-10-23T06:23:06;12.00;99.90
47022;DHT22;32779;52.264;6.154;2022-10-23T06:25:31;12.10;99.90
47022;DHT22;32779;52.264;6.154;2022-10-23T06:27:57;12.10;99.90
47022;DHT22;32779;52.264;6.154;2022-10-23T06:30:23;12.00;99.90
47022;DHT22;32779;52.264;6.154;2022-10-23T06:32:49;12.10;99.90
47022;DHT22;32779;52.264;6.154;2022-10-23T06:35:15;12.10;99.90
47022;DHT22;32779;52.264;6.154;2022-10-23T06:37:41;12.10;99.90
47022;DHT22;32779;52.264;6.154;2022-10-23T06:40:07;12.10;99.90
47022;DHT22;32779;52.264;6.154;2022-10-23T06:42:33;12.10;99.90
47022;DHT22;32779;52.264;6.154;2022-10-23T06:44:59;12.10;99.90
47022;DHT22;32779;52.264;6.154;2022-10-23T06:47:25;12.20;99.90
47022;DHT22;32779;52.264;6.154;2022-10-23T06:49:50;12.20;99.90
47022;DHT22;32779;52.264;6.154;2022-10-23T06:52:16;12.20;99.90
47022;DHT22;32779;52.264;6.154;2022-10-23T06:54:42;12.20;99.90
47022;DHT22;32779;52.264;6.154;2022-10-23T06:57:07;12.20;99.90
47022;DHT22;32779;52.264;6.154;2022-10-23T06:59:33;12.10;99.90
47022;DHT22;32779;52.264;6.154;2022-10-23T07:01:59;12.20;99.90
47022;DHT22;32779;52.264;6.154;2022-10-23T07:04:24;12.20;99.90
47022;DHT22;32779;52.264;6.154;2022-10-23T07:06:50;12.20;99.90
47022;DHT22;32779;52.264;6.154;2022-10-23T07:09:15;12.20;99.90
47022;DHT22;32779;52.264;6.154;2022-10-23T07:11:41;12.30;99.90
47022;DHT22;32779;52.264;6.154;2022-10-23T07:14:06;12.30;99.90
47022;DHT22;32779;52.264;6.154;2022-10-23T07:16:32;12.30;99.90
47022;DHT22;32779;52.264;6.154;2022-10-23T07:18:58;12.30;99.90
47022;DHT22;32779;52.264;6.154;2022-10-23T07:21:29;12.30;99.90
47022;DHT22;32779;52.264;6.154;2022-10-23T07:23:56;12.30;99.90
47022;DHT22;32779;52.264;6.154;2022-10-23T07:26:22;12.30;99.90
47022;DHT22;32779;52.264;6.154;2022-10-23T07:28:48;12.30;99.90
47022;DHT22;32779;52.264;6.154;2022-10-23T07:31:16;12.30;99.90
47022;DHT22;32779;52.264;6.154;2022-10-23T07:33:41;12.30;99.90
47022;DHT22;32779;52.264;6.154;2022-10-23T07:36:08;12.40;99.90
47022;DHT22;32779;52.264;6.154;2022-10-23T07:38:34;12.40;99.90
47022;DHT22;32779;52.264;6.154;2022-10-23T07:41:00;12.40;99.90
47022;DHT22;32779;52.264;6.154;2022-10-23T07:43:27;12.40;99.90
47022;DHT22;32779;52.264;6.154;2022-10-23T07:45:53;12.50;99.90
47022;DHT22;32779;52.264;6.154;2022-10-23T07:48:18;12.50;99.90
47022;DHT22;32779;52.264;6.154;2022-10-23T07:50:45;12.50;99.90
47022;DHT22;32779;52.264;6.154;2022-10-23T07:53:22;12.60;99.90
47022;DHT22;32779;52.264;6.154;2022-10-23T07:55:56;12.60;99.90
47022;DHT22;32779;52.264;6.154;2022-10-23T07:58:22;12.60;99.90
47022;DHT22;32779;52.264;6.154;2022-10-23T08:00:57;12.60;99.90
47022;DHT22;32779;52.264;6.154;2022-10-23T08:03:28;12.70;99.90
47022;DHT22;32779;52.264;6.154;2022-10-23T08:05:54;12.70;99.90
47022;DHT22;32779;52.264;6.154;2022-10-23T08:08:21;12.70;99.90
47022;DHT22;32779;52.264;6.154;2022-10-23T08:10:48;12.80;99.90
47022;DHT22;32779;52.264;6.154;2022-10-23T08:13:15;12.80;99.90
47022;DHT22;32779;52.264;6.154;2022-10-23T08:15:41;12.80;99.90
47022;DHT22;32779;52.264;6.154;2022-10-23T08:18:07;12.90;99.90
47022;DHT22;32779;52.264;6.154;2022-10-23T08:20:46;12.90;99.90
47022;DHT22;32779;52.264;6.154;2022-10-23T08:23:17;13.00;99.90
47022;DHT22;32779;52.264;6.154;2022-10-23T08:25:43;13.00;99.90
47022;DHT22;32779;52.264;6.154;2022-10-23T08:28:09;13.10;99.90
47022;DHT22;32779;52.264;6.154;2022-10-23T08:30:35;13.10;99.90
47022;DHT22;32779;52.264;6.154;2022-10-23T08:33:05;13.10;99.90
47022;DHT22;32779;52.264;6.154;2022-10-23T08:35:35;13.20;99.90
47022;DHT22;32779;52.264;6.154;2022-10-23T08:38:02;13.20;99.90
47022;DHT22;32779;52.264;6.154;2022-10-23T08:40:27;13.20;99.90
47022;DHT22;32779;52.264;6.154;2022-10-23T08:45:48;13.30;99.90
47022;DHT22;32779;52.264;6.154;2022-10-23T08:48:17;13.30;99.90
47022;DHT22;32779;52.264;6.154;2022-10-23T08:50:49;13.40;99.90
47022;DHT22;32779;52.264;6.154;2022-10-23T08:53:49;13.40;99.90
47022;DHT22;32779;52.264;6.154;2022-10-23T08:56:32;13.50;99.90
47022;DHT22;32779;52.264;6.154;2022-10-23T09:01:41;13.50;99.90
47022;DHT22;32779;52.264;6.154;2022-10-23T09:04:10;13.60;99.90
47022;DHT22;32779;52.264;6.154;2022-10-23T09:06:53;13.60;99.90
47022;DHT22;32779;52.264;6.154;2022-10-23T09:09:26;13.60;99.90
47022;DHT22;32779;52.264;6.154;2022-10-23T09:12:12;13.60;99.90
47022;DHT22;32779;52.264;6.154;2022-10-23T09:17:31;13.70;99.90
47022;DHT22;32779;52.264;6.154;2022-10-23T09:22:38;13.80;99.90
47022;DHT22;32779;52.264;6.154;2022-10-23T09:25:08;13.80;99.90
47022;DHT22;32779;52.264;6.154;2022-10-23T09:27:34;13.90;99.90
47022;DHT22;32779;52.264;6.154;2022-10-23T09:30:00;13.90;99.90
47022;DHT22;32779;52.264;6.154;2022-10-23T09:32:36;14.00;99.90
47022;DHT22;32779;52.264;6.154;2022-10-23T09:35:02;14.00;99.90
47022;DHT22;32779;52.264;6.154;2022-10-23T09:37:31;14.10;99.90
47022;DHT22;32779;52.264;6.154;2022-10-23T09:42:57;14.20;99.90
47022;DHT22;32779;52.264;6.154;2022-10-23T09:45:34;14.30;99.90
47022;DHT22;32779;52.264;6.154;2022-10-23T09:48:16;14.40;99.90
47022;DHT22;32779;52.264;6.154;2022-10-23T09:50:54;14.40;99.90
47022;DHT22;32779;52.264;6.154;2022-10-23T09:54:11;14.50;99.90
47022;DHT22;32779;52.264;6.154;2022-10-23T09:56:30;14.50;99.90
47022;DHT22;32779;52.264;6.154;2022-10-23T09:59:04;14.60;99.90
47022;DHT22;32779;52.264;6.154;2022-10-23T10:01:32;14.60;99.90
47022;DHT22;32779;52.264;6.154;2022-10-23T10:04:00;14.70;99.90
47022;DHT22;32779;52.264;6.154;2022-10-23T10:06:31;14.70;99.90
47022;DHT22;32779;52.264;6.154;2022-10-23T10:08:59;14.80;99.90
47022;DHT22;32779;52.264;6.154;2022-10-23T10:11:53;14.80;99.90
47022;DHT22;32779;52.264;6.154;2022-10-23T10:14:42;14.90;99.90
47022;DHT22;32779;52.264;6.154;2022-10-23T10:17:44;14.80;99.90
47022;DHT22;32779;52.264;6.154;2022-10-23T10:34:00;14.90;99.90
47022;DHT22;32779;52.264;6.154;2022-10-23T10:39:20;15.00;99.90
47022;DHT22;32779;52.264;6.154;2022-10-23T10:42:07;15.00;99.90
47022;DHT22;32779;52.264;6.154;2022-10-23T10:45:20;15.00;99.90
47022;DHT22;32779;52.264;6.154;2022-10-23T10:50:41;15.10;99.90
47022;DHT22;32779;52.264;6.154;2022-10-23T10:55:54;15.20;99.90
47022;DHT22;32779;52.264;6.154;2022-10-23T11:01:41;15.30;99.90
47022;DHT22;32779;52.264;6.154;2022-10-23T11:06:36;15.30;99.90
47022;DHT22;32779;52.264;6.154;2022-10-23T11:09:13;15.30;99.90
47022;DHT22;32779;52.264;6.154;2022-10-23T11:11:40;15.40;99.90
47022;DHT22;32779;52.264;6.154;2022-10-23T11:14:13;15.40;99.90
47022;DHT22;32779;52.264;6.154;2022-10-23T11:16:39;15.40;99.90
47022;DHT22;32779;52.264;6.154;2022-10-23T11:19:28;15.40;99.90
47022;DHT22;32779;52.264;6.154;2022-10-23T11:21:59;15.50;99.90
47022;DHT22;32779;52.264;6.154;2022-10-23T11:30:00;15.60;99.90
47022;DHT22;32779;52.264;6.154;2022-10-23T11:35:56;15.70;99.90
47022;DHT22;32779;52.264;6.154;2022-10-23T11:38:46;15.70;99.90
47022;DHT22;32779;52.264;6.154;2022-10-23T11:43:51;15.80;99.90
47022;DHT22;32779;52.264;6.154;2022-10-23T11:48:53;15.90;99.90
47022;DHT22;32779;52.264;6.154;2022-10-23T11:51:34;15.90;99.90
47022;DHT22;32779;52.264;6.154;2022-10-23T11:59:32;16.10;99.90
47022;DHT22;32779;52.264;6.154;2022-10-23T12:02:01;16.10;99.90
47022;DHT22;32779;52.264;6.154;2022-10-23T12:04:38;16.20;99.90
47022;DHT22;32779;52.264;6.154;2022-10-23T12:09:53;16.20;99.90
47022;DHT22;32779;52.264;6.154;2022-10-23T12:12:31;16.30;99.90
47022;DHT22;32779;52.264;6.154;2022-10-23T12:15:16;16.40;99.90
47022;DHT22;32779;52.264;6.154;2022-10-23T12:17:44;16.40;99.90
47022;DHT22;32779;52.264;6.154;2022-10-23T12:22:38;16.50;99.90
47022;DHT22;32779;52.264;6.154;2022-10-23T12:28:28;16.60;99.90
47022;DHT22;32779;52.264;6.154;2022-10-23T12:34:09;16.60;99.90
47022;DHT22;32779;52.264;6.154;2022-10-23T12:39:34;16.70;99.90
47022;DHT22;32779;52.264;6.154;2022-10-23T12:42:02;16.80;99.90
47022;DHT22;32779;52.264;6.154;2022-10-23T12:44:29;16.80;99.90
47022;DHT22;32779;52.264;6.154;2022-10-23T12:47:00;16.90;99.90
47022;DHT22;32779;52.264;6.154;2022-10-23T12:49:29;17.00;99.90
47022;DHT22;32779;52.264;6.154;2022-10-23T12:52:05;17.00;99.90
47022;DHT22;32779;52.264;6.154;2022-10-23T12:54:32;17.10;99.90
47022;DHT22;32779;52.264;6.154;2022-10-23T12:57:20;17.10;99.90
47022;DHT22;32779;52.264;6.154;2022-10-23T12:59:47;17.20;99.90
47022;DHT22;32779;52.264;6.154;2022-10-23T13:02:20;17.30;99.90
47022;DHT22;32779;52.264;6.154;2022-10-23T13:04:49;17.30;99.90
47022;DHT22;32779;52.264;6.154;2022-10-23T13:07:18;17.40;99.90
47022;DHT22;32779;52.264;6.154;2022-10-23T13:09:45;17.40;99.90
47022;DHT22;32779;52.264;6.154;2022-10-23T13:12:25;17.40;99.90
47022;DHT22;32779;52.264;6.154;2022-10-23T13:17:20;17.40;99.90
47022;DHT22;32779;52.264;6.154;2022-10-23T13:19:45;17.50;99.90
47022;DHT22;32779;52.264;6.154;2022-10-23T13:22:29;17.50;99.90
47022;DHT22;32779;52.264;6.154;2022-10-23T13:24:54;17.50;99.90
47022;DHT22;32779;52.264;6.154;2022-10-23T13:27:23;17.50;99.90
47022;DHT22;32779;52.264;6.154;2022-10-23T13:29:49;17.50;99.90
47022;DHT22;32779;52.264;6.154;2022-10-23T13:32:22;17.50;99.90
47022;DHT22;32779;52.264;6.154;2022-10-23T13:34:55;17.50;99.90
47022;DHT22;32779;52.264;6.154;2022-10-23T13:37:26;17.60;99.90
47022;DHT22;32779;52.264;6.154;2022-10-23T13:40:06;17.60;99.90
47022;DHT22;32779;52.264;6.154;2022-10-23T13:42:34;17.60;99.90
47022;DHT22;32779;52.264;6.154;2022-10-23T13:45:00;17.60;99.90
47022;DHT22;32779;52.264;6.154;2022-10-23T13:47:26;17.60;99.90
47022;DHT22;32779;52.264;6.154;2022-10-23T13:49:51;17.60;99.90
47022;DHT22;32779;52.264;6.154;2022-10-23T13:52:19;17.70;99.90
47022;DHT22;32779;52.264;6.154;2022-10-23T13:54:46;17.60;99.90
47022;DHT22;32779;52.264;6.154;2022-10-23T13:57:12;17.60;99.90
47022;DHT22;32779;52.264;6.154;2022-10-23T13:59:38;17.70;99.90
47022;DHT22;32779;52.264;6.154;2022-10-23T14:02:18;17.60;99.90
47022;DHT22;32779;52.264;6.154;2022-10-23T14:04:44;17.60;99.90
47022;DHT22;32779;52.264;6.154;2022-10-23T14:07:11;17.60;99.90
47022;DHT22;32779;52.264;6.154;2022-10-23T14:09:37;17.70;99.90
47022;DHT22;32779;52.264;6.154;2022-10-23T14:12:02;17.70;99.90
47022;DHT22;32779;52.264;6.154;2022-10-23T14:14:28;17.70;99.90
47022;DHT22;32779;52.264;6.154;2022-10-23T14:16:53;17.70;99.90
47022;DHT22;32779;52.264;6.154;2022-10-23T14:19:19;17.70;99.90
47022;DHT22;32779;52.264;6.154;2022-10-23T14:21:45;17.70;99.90
47022;DHT22;32779;52.264;6.154;2022-10-23T14:24:10;17.70;99.90
47022;DHT22;32779;52.264;6.154;2022-10-23T14:26:36;17.70;99.90
47022;DHT22;32779;52.264;6.154;2022-10-23T14:29:02;17.70;99.90
47022;DHT22;32779;52.264;6.154;2022-10-23T14:31:28;17.70;99.90
47022;DHT22;32779;52.264;6.154;2022-10-23T14:33:55;17.70;99.90
47022;DHT22;32779;52.264;6.154;2022-10-23T14:36:22;17.70;99.90
47022;DHT22;32779;52.264;6.154;2022-10-23T14:38:47;17.70;99.90
47022;DHT22;32779;52.264;6.154;2022-10-23T14:41:14;17.70;99.90
47022;DHT22;32779;52.264;6.154;2022-10-23T14:43:40;17.80;99.90
47022;DHT22;32779;52.264;6.154;2022-10-23T14:46:15;17.80;99.90
47022;DHT22;32779;52.264;6.154;2022-10-23T14:48:41;17.70;99.90
47022;DHT22;32779;52.264;6.154;2022-10-23T14:51:14;17.80;99.90
47022;DHT22;32779;52.264;6.154;2022-10-23T14:53:40;17.70;99.90
47022;DHT22;32779;52.264;6.154;2022-10-23T14:56:06;17.70;99.90
47022;DHT22;32779;52.264;6.154;2022-10-23T14:58:31;17.70;99.90
47022;DHT22;32779;52.264;6.154;2022-10-23T15:00:58;17.70;99.90
47022;DHT22;32779;52.264;6.154;2022-10-23T15:03:27;17.70;99.90
47022;DHT22;32779;52.264;6.154;2022-10-23T15:05:53;17.70;99.90
47022;DHT22;32779;52.264;6.154;2022-10-23T15:08:19;17.70;99.90
47022;DHT22;32779;52.264;6.154;2022-10-23T15:10:45;17.70;99.90
47022;DHT22;32779;52.264;6.154;2022-10-23T15:13:10;17.70;99.90
47022;DHT22;32779;52.264;6.154;2022-10-23T15:15:36;17.70;99.90
47022;DHT22;32779;52.264;6.154;2022-10-23T15:18:01;17.70;99.90
47022;DHT22;32779;52.264;6.154;2022-10-23T15:20:27;17.70;99.90
47022;DHT22;32779;52.264;6.154;2022-10-23T15:22:52;17.60;99.90
47022;DHT22;32779;52.264;6.154;2022-10-23T15:25:18;17.60;99.90
47022;DHT22;32779;52.264;6.154;2022-10-23T15:27:43;17.60;99.90
47022;DHT22;32779;52.264;6.154;2022-10-23T15:30:09;17.60;99.90
47022;DHT22;32779;52.264;6.154;2022-10-23T15:32:35;17.50;99.90
47022;DHT22;32779;52.264;6.154;2022-10-23T15:35:01;17.50;99.90
47022;DHT22;32779;52.264;6.154;2022-10-23T15:37:26;17.50;99.90
47022;DHT22;32779;52.264;6.154;2022-10-23T15:39:52;17.50;99.90
47022;DHT22;32779;52.264;6.154;2022-10-23T15:42:17;17.40;99.90
47022;DHT22;32779;52.264;6.154;2022-10-23T15:44:43;17.50;99.90
47022;DHT22;32779;52.264;6.154;2022-10-23T15:47:09;17.50;99.90
47022;DHT22;32779;52.264;6.154;2022-10-23T15:49:35;17.50;99.90
47022;DHT22;32779;52.264;6.154;2022-10-23T15:52:02;17.50;99.90
47022;DHT22;32779;52.264;6.154;2022-10-23T15:54:29;17.50;99.90
47022;DHT22;32779;52.264;6.154;2022-10-23T15:56:55;17.40;99.90
47022;DHT22;32779;52.264;6.154;2022-10-23T15:59:22;17.40;99.90
47022;DHT22;32779;52.264;6.154;2022-10-23T16:01:49;17.40;99.90
47022;DHT22;32779;52.264;6.154;2022-10-23T16:04:14;17.40;99.90
47022;DHT22;32779;52.264;6.154;2022-10-23T16:06:41;17.40;99.90
47022;DHT22;32779;52.264;6.154;2022-10-23T16:09:07;17.30;99.90
47022;DHT22;32779;52.264;6.154;2022-10-23T16:11:33;17.30;99.90
47022;DHT22;32779;52.264;6.154;2022-10-23T16:14:00;17.30;99.90
47022;DHT22;32779;52.264;6.154;2022-10-23T16:16:27;17.30;99.90
47022;DHT22;32779;52.264;6.154;2022-10-23T16:18:53;17.20;99.90
47022;DHT22;32779;52.264;6.154;2022-10-23T16:21:21;17.20;99.90
47022;DHT22;32779;52.264;6.154;2022-10-23T16:23:47;17.20;99.90
47022;DHT22;32779;52.264;6.154;2022-10-23T16:26:13;17.10;99.90
47022;DHT22;32779;52.264;6.154;2022-10-23T16:28:38;17.10;99.90
47022;DHT22;32779;52.264;6.154;2022-10-23T16:31:09;17.10;99.90
47022;DHT22;32779;52.264;6.154;2022-10-23T16:33:35;17.10;99.90
47022;DHT22;32779;52.264;6.154;2022-10-23T16:36:02;17.20;99.90
47022;DHT22;32779;52.264;6.154;2022-10-23T16:38:27;17.20;99.90
47022;DHT22;32779;52.264;6.154;2022-10-23T16:40:53;17.20;99.90
47022;DHT22;32779;52.264;6.154;2022-10-23T16:43:18;17.20;99.90
47022;DHT22;32779;52.264;6.154;2022-10-23T16:45:44;17.20;99.90
47022;DHT22;32779;52.264;6.154;2022-10-23T16:48:10;17.10;99.90
47022;DHT22;32779;52.264;6.154;2022-10-23T16:50:39;17.10;99.90
47022;DHT22;32779;52.264;6.154;2022-10-23T16:53:05;17.10;99.90
47022;DHT22;32779;52.264;6.154;2022-10-23T16:55:30;17.10;99.90
47022;DHT22;32779;52.264;6.154;2022-10-23T16:57:56;17.10;99.90
47022;DHT22;32779;52.264;6.154;2022-10-23T17:00:25;17.00;99.90
47022;DHT22;32779;52.264;6.154;2022-10-23T17:03:00;17.10;99.90
47022;DHT22;32779;52.264;6.154;2022-10-23T17:05:25;17.10;99.90
47022;DHT22;32779;52.264;6.154;2022-10-23T17:07:51;17.10;99.90
47022;DHT22;32779;52.264;6.154;2022-10-23T17:10:16;17.10;99.90
47022;DHT22;32779;52.264;6.154;2022-10-23T17:12:42;17.10;99.90
47022;DHT22;32779;52.264;6.154;2022-10-23T17:15:08;17.00;99.90
47022;DHT22;32779;52.264;6.154;2022-10-23T17:17:33;17.00;99.90
47022;DHT22;32779;52.264;6.154;2022-10-23T17:19:59;16.90;99.90
47022;DHT22;32779;52.264;6.154;2022-10-23T17:22:24;16.90;99.90
47022;DHT22;32779;52.264;6.154;2022-10-23T17:24:50;16.90;99.90
47022;DHT22;32779;52.264;6.154;2022-10-23T17:27:17;16.90;99.90
47022;DHT22;32779;52.264;6.154;2022-10-23T17:29:42;16.80;99.90